createdAt,value
2018-08-11T00:00:21.092Z,62.10
2018-08-11T00:02:49.060Z,62.20
2018-08-11T00:05:17.244Z,61.60
2018-08-11T00:07:45.297Z,61.70
2018-08-11T00:10:13.070Z,61.40
2018-08-11T00:12:40.839Z,62.00
2018-08-11T00:15:11.048Z,62.50
2018-08-11T00:17:39.143Z,62.00
2018-08-11T00:20:09.599Z,61.40
2018-08-11T00:22:37.663Z,60.90
2018-08-11T00:25:06.089Z,61.30
2018-08-11T00:27:33.815Z,61.80
2018-08-11T00:30:02.509Z,61.10
2018-08-11T00:32:30.271Z,60.80
2018-08-11T00:34:59.200Z,60.40
2018-08-11T00:37:26.867Z,60.70
2018-08-11T00:39:54.593Z,60.40
2018-08-11T00:42:22.400Z,61.30
2018-08-11T00:44:50.204Z,61.50
2018-08-11T00:47:18.032Z,62.30
2018-08-11T00:49:45.700Z,61.80
2018-08-11T00:52:13.503Z,62.00
2018-08-11T00:54:41.569Z,61.50
2018-08-11T00:57:09.331Z,61.20
2018-08-11T00:59:37.057Z,60.80
2018-08-11T01:02:05.372Z,60.60
2018-08-11T01:04:33.134Z,60.80
2018-08-11T01:07:00.906Z,61.10
2018-08-11T01:09:28.590Z,60.80
2018-08-11T01:11:56.320Z,60.80
2018-08-11T01:14:24.834Z,61.30
2018-08-11T01:16:52.654Z,60.90
2018-08-11T01:19:20.418Z,61.20
2018-08-11T01:21:48.200Z,61.20
2018-08-11T01:24:15.895Z,62.00
2018-08-11T01:26:43.587Z,61.40
2018-08-11T01:29:11.380Z,61.80
2018-08-11T01:31:39.012Z,62.00
2018-08-11T01:34:06.812Z,62.20
2018-08-11T01:36:34.466Z,62.30
2018-08-11T01:39:02.340Z,62.50
2018-08-11T01:41:29.995Z,63.20
2018-08-11T01:43:57.742Z,62.50
2018-08-11T01:46:25.407Z,62.10
2018-08-11T01:48:53.174Z,62.30
2018-08-11T01:51:20.799Z,62.30
2018-08-11T01:53:48.555Z,62.30
2018-08-11T01:56:16.244Z,62.00
2018-08-11T01:58:43.888Z,61.70
2018-08-11T02:01:11.680Z,62.10
2018-08-11T02:03:39.463Z,62.50
2018-08-11T02:06:07.307Z,61.90
2018-08-11T02:08:34.953Z,61.90
2018-08-11T02:11:02.767Z,61.70
2018-08-11T02:13:30.419Z,61.50
2018-08-11T02:15:58.234Z,61.10
2018-08-11T02:18:25.895Z,60.90
2018-08-11T02:20:54.118Z,60.60
2018-08-11T02:23:21.903Z,61.30
2018-08-11T02:25:49.661Z,60.50
2018-08-11T02:28:17.329Z,60.40
2018-08-11T02:30:45.169Z,60.10
2018-08-11T02:33:12.936Z,60.30
2018-08-11T02:35:40.608Z,60.40
2018-08-11T02:38:08.760Z,60.30
2018-08-11T02:40:36.587Z,60.70
2018-08-11T02:43:04.459Z,60.30
2018-08-11T02:45:32.132Z,60.70
2018-08-11T02:47:59.906Z,59.80
2018-08-11T02:50:28.360Z,60.30
2018-08-11T02:52:56.135Z,59.70
2018-08-11T02:55:23.807Z,60.60
2018-08-11T02:57:51.568Z,59.80
2018-08-11T03:00:19.271Z,58.70
2018-08-11T03:02:47.029Z,58.90
2018-08-11T03:05:14.775Z,59.20
2018-08-11T03:07:42.680Z,59.20
2018-08-11T03:10:11.367Z,58.70
2018-08-11T03:12:39.817Z,59.00
2018-08-11T03:15:09.435Z,59.40
2018-08-11T03:17:37.506Z,59.00
2018-08-11T03:20:07.640Z,58.80
2018-08-11T03:22:35.351Z,59.30
2018-08-11T03:25:04.016Z,59.00
2018-08-11T03:27:31.675Z,58.50
2018-08-11T03:29:59.927Z,58.10
2018-08-11T03:32:27.612Z,58.40
2018-08-11T03:34:55.391Z,58.80
2018-08-11T03:37:23.113Z,58.90
2018-08-11T03:39:51.411Z,58.60
2018-08-11T03:42:19.236Z,58.70
2018-08-11T03:44:47.261Z,59.00
2018-08-11T03:47:15.034Z,59.40
2018-08-11T03:49:43.270Z,59.20
2018-08-11T03:52:11.063Z,58.60
2018-08-11T03:54:38.744Z,58.30
2018-08-11T03:57:06.892Z,58.90
2018-08-11T03:59:34.557Z,58.60
2018-08-11T04:02:02.895Z,58.40
2018-08-11T04:04:30.659Z,59.00
2018-08-11T04:06:59.008Z,59.60
2018-08-11T04:09:26.676Z,59.60
2018-08-11T04:11:54.419Z,58.30
2018-08-11T04:14:22.502Z,58.50
2018-08-11T04:16:51.048Z,59.60
2018-08-11T04:19:20.981Z,59.10
2018-08-11T04:21:48.775Z,58.70
2018-08-11T04:24:16.847Z,58.90
2018-08-11T04:26:45.440Z,58.80
2018-08-11T04:29:13.140Z,58.90
2018-08-11T04:31:42.147Z,59.00
2018-08-11T04:34:14.283Z,59.50
2018-08-11T04:36:42.467Z,59.20
2018-08-11T04:39:10.623Z,60.00
2018-08-11T04:41:38.924Z,58.80
2018-08-11T04:44:08.595Z,59.40
2018-08-11T04:46:36.262Z,59.40
2018-08-11T04:49:04.864Z,59.10
2018-08-11T04:51:32.515Z,59.70
2018-08-11T04:54:00.239Z,59.50
2018-08-11T04:56:28.408Z,58.80
2018-08-11T04:59:00.348Z,59.50
2018-08-11T05:01:28.004Z,59.90
2018-08-11T05:03:56.829Z,59.80
2018-08-11T05:06:24.988Z,59.70
2018-08-11T05:08:52.810Z,60.40
2018-08-11T05:11:21.524Z,60.10
2018-08-11T05:13:49.299Z,60.20
2018-08-11T05:16:16.984Z,60.70
2018-08-11T05:18:44.634Z,59.80
2018-08-11T05:21:12.420Z,60.00
2018-08-11T05:23:40.440Z,60.60
2018-08-11T05:26:08.256Z,61.10
2018-08-11T05:28:35.879Z,61.20
2018-08-11T05:31:03.778Z,61.10
2018-08-11T05:33:31.584Z,61.20
2018-08-11T05:35:59.357Z,59.60
2018-08-11T05:38:27.055Z,60.30
2018-08-11T05:40:54.846Z,61.20
2018-08-11T05:43:22.594Z,60.50
2018-08-11T05:45:50.271Z,60.10
2018-08-11T05:48:18.082Z,59.00
2018-08-11T05:50:46.394Z,59.60
2018-08-11T05:53:14.543Z,59.10
2018-08-11T05:55:43.348Z,59.10
2018-08-11T05:58:11.187Z,58.70
2018-08-11T06:00:41.298Z,58.30
2018-08-11T06:03:09.222Z,57.80
2018-08-11T06:05:38.052Z,59.20
2018-08-11T06:08:06.741Z,58.90
2018-08-11T06:10:34.612Z,57.90
2018-08-11T06:13:02.399Z,58.00
2018-08-11T06:15:30.130Z,58.60
2018-08-11T06:17:58.737Z,58.90
2018-08-11T06:20:27.370Z,58.30
2018-08-11T06:23:00.391Z,58.60
2018-08-11T06:25:29.775Z,58.40
2018-08-11T06:27:57.589Z,58.80
2018-08-11T06:30:26.123Z,60.10
2018-08-11T06:32:58.128Z,58.00
2018-08-11T06:35:27.076Z,58.20
2018-08-11T06:37:58.475Z,59.10
2018-08-11T06:40:28.542Z,58.20
2018-08-11T06:42:59.664Z,58.50
2018-08-11T06:45:30.498Z,58.90
2018-08-11T06:48:00.033Z,58.40
2018-08-11T06:50:30.614Z,59.40
2018-08-11T06:53:03.259Z,57.50
2018-08-11T06:55:33.798Z,58.20
2018-08-11T06:58:01.563Z,57.60
2018-08-11T07:00:31.614Z,59.00
2018-08-11T07:03:01.896Z,58.40
2018-08-11T07:05:30.367Z,58.50
2018-08-11T07:07:59.800Z,57.90
2018-08-11T07:10:31.937Z,57.90
2018-08-11T07:13:02.316Z,58.00
2018-08-11T07:15:33.189Z,57.40
2018-08-11T07:18:04.750Z,57.50
2018-08-11T07:20:34.725Z,58.00
2018-08-11T07:23:03.339Z,57.90
2018-08-11T07:25:32.101Z,58.00
2018-08-11T07:28:03.868Z,57.50
2018-08-11T07:30:31.594Z,57.90
2018-08-11T07:32:59.330Z,57.90
2018-08-11T07:35:27.468Z,59.70
2018-08-11T07:37:55.452Z,59.60
2018-08-11T07:40:25.994Z,60.00
2018-08-11T07:42:55.495Z,59.80
2018-08-11T07:45:24.590Z,59.50
2018-08-11T07:47:58.272Z,59.40
2018-08-11T07:50:28.178Z,57.90
2018-08-11T07:53:01.413Z,59.80
2018-08-11T07:55:36.351Z,56.30
2018-08-11T07:58:07.852Z,57.90
2018-08-11T08:00:42.371Z,56.10
2018-08-11T08:03:14.517Z,55.60
2018-08-11T08:05:46.066Z,55.40
2018-08-11T08:08:21.577Z,56.50
2018-08-11T08:10:52.728Z,56.50
2018-08-11T08:13:25.247Z,54.80
2018-08-11T08:15:57.897Z,57.00
2018-08-11T08:18:30.402Z,55.90
2018-08-11T08:21:06.521Z,56.20
2018-08-11T08:23:40.174Z,55.20
2018-08-11T08:26:10.470Z,55.20
2018-08-11T08:28:45.936Z,55.40
2018-08-11T08:31:18.483Z,55.80
2018-08-11T08:33:52.013Z,56.00
2018-08-11T08:36:26.312Z,56.40
2018-08-11T08:39:00.827Z,54.30
2018-08-11T08:41:32.412Z,54.00
2018-08-11T08:44:03.576Z,54.50
2018-08-11T08:46:35.902Z,53.80
2018-08-11T08:49:08.122Z,52.40
2018-08-11T08:51:40.479Z,54.50
2018-08-11T08:54:13.151Z,54.50
2018-08-11T08:56:43.973Z,53.70
2018-08-11T08:59:16.687Z,53.80
2018-08-11T09:01:50.760Z,54.20
2018-08-11T09:04:21.427Z,52.70
2018-08-11T09:06:51.938Z,53.60
2018-08-11T09:09:27.584Z,52.90
2018-08-11T09:11:56.476Z,52.50
2018-08-11T09:14:27.759Z,55.10
2018-08-11T09:16:57.164Z,54.10
2018-08-11T09:19:28.441Z,52.90
2018-08-11T09:21:59.847Z,52.00
2018-08-11T09:24:29.266Z,53.50
2018-08-11T09:27:04.994Z,50.90
2018-08-11T09:29:38.459Z,51.60
2018-08-11T09:32:08.092Z,51.00
2018-08-11T09:34:38.613Z,50.70
2018-08-11T09:37:10.859Z,50.50
2018-08-11T09:39:41.771Z,50.60
2018-08-11T09:42:11.831Z,50.90
2018-08-11T09:44:41.609Z,50.70
2018-08-11T09:47:11.646Z,49.90
2018-08-11T09:49:42.203Z,51.80
2018-08-11T09:52:11.002Z,51.80
2018-08-11T09:54:39.316Z,50.90
2018-08-11T09:57:07.227Z,52.40
2018-08-11T09:59:37.878Z,48.50
2018-08-11T10:02:16.471Z,49.20
2018-08-11T10:04:45.654Z,49.00
2018-08-11T10:07:14.707Z,51.30
2018-08-11T10:15:55.543Z,48.20
2018-08-11T10:18:24.362Z,48.20
2018-08-11T10:20:53.251Z,47.90
2018-08-11T10:23:21.636Z,47.60
2018-08-11T10:25:51.575Z,49.70
2018-08-11T10:28:21.734Z,48.50
2018-08-11T10:30:50.327Z,48.70
2018-08-11T10:33:18.936Z,49.10
2018-08-11T10:35:47.595Z,47.50
2018-08-11T10:38:17.840Z,49.10
2018-08-11T10:40:45.806Z,47.50
2018-08-11T10:43:14.307Z,48.80
2018-08-11T10:45:47.672Z,49.40
2018-08-11T10:48:17.081Z,46.40
2018-08-11T10:50:47.673Z,47.80
2018-08-11T10:53:18.351Z,52.30
2018-08-11T10:55:46.215Z,49.40
2018-08-11T10:58:15.943Z,47.10
2018-08-11T11:00:48.267Z,48.70
2018-08-11T11:03:18.342Z,48.20
2018-08-11T11:05:49.226Z,49.70
2018-08-11T11:08:19.979Z,46.30
2018-08-11T11:10:55.553Z,46.40
2018-08-11T11:13:25.502Z,45.80
2018-08-11T11:15:58.761Z,44.00
2018-08-11T11:18:31.074Z,44.70
2018-08-11T11:21:03.763Z,43.50
2018-08-11T11:23:36.176Z,43.80
2018-08-11T11:26:09.670Z,44.30
2018-08-11T11:28:41.453Z,49.60
2018-08-11T11:31:12.544Z,46.20
2018-08-11T11:33:41.247Z,45.30
2018-08-11T11:36:09.793Z,43.40
2018-08-11T11:38:39.150Z,42.70
2018-08-11T11:41:10.784Z,43.40
2018-08-11T11:43:41.293Z,44.10
2018-08-11T11:46:13.031Z,45.20
2018-08-11T11:48:43.981Z,43.50
2018-08-11T11:51:15.485Z,42.80
2018-08-11T11:53:46.042Z,43.80
2018-08-11T11:56:15.643Z,40.50
2018-08-11T11:58:47.026Z,41.40
2018-08-11T12:01:16.304Z,41.90
2018-08-11T12:03:47.742Z,39.60
2018-08-11T12:06:21.312Z,41.80
2018-08-11T12:09:00.244Z,39.80
2018-08-11T12:11:32.240Z,39.60
2018-08-11T12:14:02.678Z,39.60
2018-08-11T12:16:37.699Z,39.00
2018-08-11T12:19:11.583Z,39.90
2018-08-11T12:21:40.563Z,39.50
2018-08-11T12:24:13.820Z,37.00
2018-08-11T12:26:49.689Z,38.50
2018-08-11T12:29:19.644Z,37.10
2018-08-11T12:31:52.314Z,38.30
2018-08-11T12:34:21.815Z,37.80
2018-08-11T12:36:53.348Z,36.60
2018-08-11T12:39:24.848Z,37.50
2018-08-11T12:41:55.335Z,37.00
2018-08-11T12:44:26.810Z,36.70
2018-08-11T12:46:57.110Z,37.70
2018-08-11T12:49:26.527Z,38.80
2018-08-11T12:51:55.141Z,36.90
2018-08-11T12:54:23.840Z,38.90
2018-08-11T12:56:52.702Z,37.20
2018-08-11T12:59:22.393Z,37.50
2018-08-11T13:01:51.293Z,37.10
2018-08-11T13:04:20.094Z,37.60
2018-08-11T13:06:49.833Z,35.90
2018-08-11T13:09:18.090Z,36.00
2018-08-11T13:11:50.680Z,38.00
2018-08-11T13:14:20.203Z,39.40
2018-08-11T13:16:49.574Z,35.80
2018-08-11T13:21:46.581Z,36.30
2018-08-11T13:24:16.909Z,36.10
2018-08-11T13:26:48.552Z,38.20
2018-08-11T13:29:17.302Z,34.90
2018-08-11T13:31:47.503Z,35.50
2018-08-11T13:34:16.563Z,35.60
2018-08-11T13:36:45.430Z,35.90
2018-08-11T13:39:14.215Z,37.20
2018-08-11T13:41:46.390Z,37.10
2018-08-11T13:44:15.879Z,38.40
2018-08-11T13:46:43.669Z,34.40
2018-08-11T13:49:15.104Z,35.10
2018-08-11T13:51:42.990Z,36.30
2018-08-11T13:54:10.765Z,36.40
2018-08-11T13:56:48.084Z,36.50
2018-08-11T13:59:27.735Z,35.00
2018-08-11T14:02:02.842Z,35.90
2018-08-11T14:04:40.314Z,36.30
2018-08-11T14:07:08.390Z,36.60
2018-08-11T14:09:36.132Z,35.30
2018-08-11T14:12:03.996Z,34.30
2018-08-11T14:14:31.660Z,35.30
2018-08-11T14:16:59.443Z,37.00
2018-08-11T14:19:27.422Z,35.20
2018-08-11T14:21:58.622Z,35.80
2018-08-11T14:24:27.343Z,36.60
2018-08-11T14:27:00.009Z,34.00
2018-08-11T14:29:33.074Z,34.30
2018-08-11T14:32:01.751Z,35.90
2018-08-11T14:34:31.373Z,36.70
2018-08-11T14:37:03.637Z,35.60
2018-08-11T14:39:33.532Z,36.40
2018-08-11T14:42:04.054Z,36.00
2018-08-11T14:44:32.748Z,36.10
2018-08-11T14:47:03.434Z,36.80
2018-08-11T14:49:31.445Z,37.20
2018-08-11T14:52:01.295Z,38.30
2018-08-11T14:54:35.196Z,36.90
2018-08-11T14:57:07.976Z,37.80
2018-08-11T14:59:35.892Z,38.10
2018-08-11T15:02:09.326Z,39.40
2018-08-11T15:04:40.874Z,38.10
2018-08-11T15:07:13.995Z,39.90
2018-08-11T15:09:46.282Z,39.60
2018-08-11T15:12:18.097Z,37.30
2018-08-11T15:14:49.203Z,38.40
2018-08-11T15:17:21.679Z,40.70
2018-08-11T15:19:50.047Z,39.70
2018-08-11T15:22:25.173Z,39.00
2018-08-11T15:25:05.512Z,37.60
2018-08-11T15:27:40.263Z,36.20
2018-08-11T15:30:17.296Z,37.80
2018-08-11T15:32:57.540Z,37.10
2018-08-11T15:35:36.277Z,37.10
2018-08-11T15:38:12.422Z,37.50
2018-08-11T15:40:44.833Z,36.80
2018-08-11T15:43:18.256Z,37.50
2018-08-11T15:45:54.642Z,37.70
2018-08-11T15:51:05.300Z,38.30
2018-08-11T15:53:35.742Z,38.20
2018-08-11T15:56:12.017Z,37.70
2018-08-11T15:58:57.117Z,38.70
2018-08-11T16:01:30.017Z,38.90
2018-08-11T16:04:06.469Z,38.30
2018-08-11T16:06:39.207Z,39.40
2018-08-11T16:09:14.544Z,38.60
2018-08-11T16:11:46.488Z,38.50
2018-08-11T16:14:18.113Z,38.20
2018-08-11T16:16:47.413Z,39.90
2018-08-11T16:32:36.052Z,39.80
2018-08-11T16:35:04.060Z,39.80
2018-08-11T16:37:33.523Z,41.20
2018-08-11T16:40:02.771Z,41.50
2018-08-11T16:42:30.480Z,39.60
2018-08-11T16:44:58.255Z,40.00
2018-08-11T16:47:25.902Z,40.30
2018-08-11T16:49:53.684Z,39.60
2018-08-11T16:52:21.362Z,40.90
2018-08-11T16:54:49.001Z,39.60
2018-08-11T16:57:16.707Z,40.00
2018-08-11T16:59:44.411Z,40.60
2018-08-11T17:02:12.129Z,40.60
2018-08-11T17:04:39.854Z,40.70
2018-08-11T17:07:07.632Z,39.90
2018-08-11T17:09:35.342Z,41.10
2018-08-11T17:12:03.202Z,40.40
2018-08-11T17:14:30.872Z,40.10
2018-08-11T17:16:58.667Z,41.30
2018-08-11T17:19:26.305Z,41.90
2018-08-11T17:21:54.103Z,41.80
2018-08-11T17:24:21.732Z,41.40
2018-08-11T17:26:49.471Z,41.70
2018-08-11T17:29:17.147Z,41.60
2018-08-11T17:31:44.844Z,42.40
2018-08-11T17:34:12.591Z,42.40
2018-08-11T17:36:40.238Z,42.10
2018-08-11T17:39:11.292Z,41.80
2018-08-11T17:41:39.951Z,41.60
2018-08-11T17:44:10.268Z,42.00
2018-08-11T17:46:39.503Z,42.80
2018-08-11T17:49:17.192Z,41.90
2018-08-11T17:51:54.975Z,41.80
2018-08-11T17:54:24.392Z,41.80
2018-08-11T17:56:52.752Z,42.20
2018-08-11T17:59:32.411Z,42.70
2018-08-11T18:02:08.319Z,42.60
2018-08-11T18:04:45.559Z,42.50
2018-08-11T18:07:22.171Z,42.30
2018-08-11T18:09:59.102Z,42.60
2018-08-11T18:12:32.704Z,43.10
2018-08-11T18:15:12.624Z,43.50
2018-08-11T18:17:50.143Z,43.80
2018-08-11T18:20:29.373Z,43.70
2018-08-11T18:23:05.663Z,43.30
2018-08-11T18:25:37.524Z,42.90
2018-08-11T18:28:07.865Z,43.10
2018-08-11T18:30:38.292Z,43.00
2018-08-11T18:33:14.691Z,43.30
2018-08-11T18:35:58.590Z,43.50
2018-08-11T18:38:32.683Z,43.50
2018-08-11T18:41:06.192Z,43.70
2018-08-11T18:43:38.317Z,43.30
2018-08-11T18:46:16.731Z,43.80
2018-08-11T18:48:49.182Z,43.50
2018-08-11T18:51:23.787Z,44.20
2018-08-11T18:53:52.519Z,44.10
2018-08-11T18:56:21.682Z,44.40
2018-08-11T18:58:56.155Z,43.90
2018-08-11T19:01:25.642Z,43.70
2018-08-11T19:03:58.003Z,44.80
2018-08-11T19:06:26.677Z,44.50
2018-08-11T19:08:55.148Z,45.00
2018-08-11T19:11:26.684Z,45.00
2018-08-11T19:14:05.363Z,45.20
2018-08-11T19:19:11.411Z,45.80
2018-08-11T19:21:42.616Z,45.30
2018-08-11T19:24:11.928Z,45.40
2018-08-11T19:29:20.840Z,45.00
2018-08-11T19:32:17.923Z,45.10
2018-08-11T19:34:54.915Z,45.40
2018-08-11T19:37:43.990Z,45.50
2018-08-11T19:40:26.557Z,46.10
2018-08-11T19:43:11.524Z,46.70
2018-08-11T19:51:41.567Z,47.20
2018-08-11T22:11:44.377Z,47.00
2018-08-11T22:14:12.241Z,50.40
2018-08-11T22:16:39.906Z,50.80
2018-08-11T22:19:07.731Z,50.80
2018-08-11T22:21:35.387Z,51.10
2018-08-11T22:24:03.211Z,51.60
2018-08-11T22:26:30.856Z,51.60
2018-08-11T22:28:58.692Z,51.80
2018-08-11T22:31:26.416Z,52.20
2018-08-11T22:33:54.100Z,52.10
2018-08-11T22:36:21.944Z,52.40
2018-08-11T22:38:49.649Z,52.60
2018-08-11T22:41:17.455Z,52.50
2018-08-11T22:43:45.127Z,52.80
2018-08-11T22:46:12.921Z,53.00
2018-08-11T22:48:40.676Z,53.00
2018-08-11T22:51:08.439Z,52.90
2018-08-11T22:53:36.219Z,53.00
2018-08-11T22:56:04.003Z,52.80
2018-08-11T22:58:31.684Z,53.00
2018-08-11T23:00:59.494Z,52.90
2018-08-11T23:03:27.435Z,53.10
2018-08-11T23:05:55.123Z,53.30
2018-08-11T23:08:23.004Z,53.60
2018-08-11T23:10:50.755Z,53.80
2018-08-11T23:13:18.527Z,53.70
2018-08-11T23:15:46.301Z,53.80
2018-08-11T23:18:13.976Z,53.50
2018-08-11T23:20:41.758Z,53.70
2018-08-11T23:23:09.547Z,53.40
2018-08-11T23:25:37.278Z,53.90
2018-08-11T23:28:04.984Z,53.50
2018-08-11T23:30:32.724Z,53.40
2018-08-11T23:33:00.452Z,54.10
2018-08-11T23:35:28.176Z,54.30
2018-08-11T23:37:55.894Z,54.20
2018-08-11T23:40:23.700Z,54.20
2018-08-11T23:42:51.427Z,54.00
2018-08-11T23:45:19.203Z,54.20
2018-08-11T23:47:46.960Z,54.30
2018-08-11T23:50:15.130Z,54.20
2018-08-11T23:52:43.728Z,54.30
2018-08-11T23:55:12.602Z,54.60
2018-08-11T23:57:40.597Z,55.10
